Time;durP1;ratioP1;P1;durP2;ratioP2;P2;SDS_P1;SDS_P2;PMS_P1;PMS_P2;Temp;Humidity;BMP_temperature;BMP_pressure;BME280_temperature;BME280_humidity;BME280_pressure;Samples;Min_cycle;Max_cycle;Signal;HPM_P1;HPM_P2
2023/08/07 00:00:12;;;;;;;1.50;1.40;;;;;;;20.67;59.22;100379.63;5032066;27;97242;-54
2023/08/07 00:02:38;;;;;;;1.70;1.60;;;;;;;20.63;59.05;100380.03;5031088;27;97399;-55
2023/08/07 00:05:04;;;;;;;1.70;1.60;;;;;;;20.60;59.37;100369.97;5032269;27;97101;-55
2023/08/07 00:07:29;;;;;;;1.23;1.00;;;;;;;20.58;59.41;100369.06;5033143;27;97293;-55
2023/08/07 00:09:54;;;;;;;2.03;1.60;;;;;;;20.54;59.72;100372.25;5033445;27;104769;-55
2023/08/07 00:12:20;;;;;;;1.80;1.40;;;;;;;20.53;59.49;100376.34;5032391;27;97446;-55
2023/08/07 00:14:47;;;;;;;1.30;1.20;;;;;;;20.51;59.69;100381.75;5032323;27;97129;-55
2023/08/07 00:17:13;;;;;;;1.50;1.40;;;;;;;20.51;59.85;100376.19;5031242;27;97099;-54
2023/08/07 00:19:38;;;;;;;1.80;1.63;;;;;;;20.49;59.67;100378.78;5031898;27;97153;-54
2023/08/07 00:22:03;;;;;;;2.13;1.70;;;;;;;20.50;59.76;100374.69;5034802;27;97520;-54
2023/08/07 00:24:29;;;;;;;1.70;1.43;;;;;;;20.51;59.89;100373.38;5035422;27;97552;-54
2023/08/07 00:26:54;;;;;;;1.80;1.33;;;;;;;20.51;59.74;100372.66;5035093;27;96711;-54
2023/08/07 00:29:19;;;;;;;9.37;1.70;;;;;;;20.52;59.86;100374.13;5035343;27;112062;-55
2023/08/07 00:31:45;;;;;;;1.50;1.37;;;;;;;20.51;59.87;100373.38;5033622;27;109566;-55
2023/08/07 00:34:10;;;;;;;1.53;1.43;;;;;;;20.50;59.98;100380.28;5036453;27;97215;-55
2023/08/07 00:36:35;;;;;;;1.37;1.27;;;;;;;20.50;60.15;100374.69;5037796;27;97085;-55
2023/08/07 00:39:03;;;;;;;1.40;1.30;;;;;;;20.50;60.06;100382.34;5037049;27;97381;-55
2023/08/07 00:41:29;;;;;;;2.17;1.63;;;;;;;20.50;60.02;100383.09;5036016;27;97190;-55
2023/08/07 00:43:54;;;;;;;1.93;1.83;;;;;;;20.51;60.28;100386.63;5034939;27;96937;-53
2023/08/07 00:46:19;;;;;;;1.87;1.77;;;;;;;20.50;60.18;100380.28;5036227;27;97154;-54
2023/08/07 00:48:45;;;;;;;1.40;1.30;;;;;;;20.52;60.16;100379.72;5034912;27;97629;-54
2023/08/07 00:51:11;;;;;;;1.40;1.30;;;;;;;20.49;60.26;100376.00;5036535;27;96974;-54
2023/08/07 00:53:39;;;;;;;4.40;1.80;;;;;;;20.50;60.27;100382.34;5033925;27;97158;-54
2023/08/07 00:56:05;;;;;;;2.50;1.90;;;;;;;20.49;60.33;100381.59;5036582;27;97034;-54
2023/08/07 00:58:31;;;;;;;1.80;1.70;;;;;;;20.50;60.37;100385.13;5038242;27;99051;-54
2023/08/07 01:00:57;;;;;;;1.80;1.70;;;;;;;20.48;60.41;100379.38;5036435;27;97571;-54
2023/08/07 01:03:23;;;;;;;2.33;2.23;;;;;;;20.46;60.38;100382.75;5034391;27;97394;-54
2023/08/07 01:05:48;;;;;;;3.33;1.87;;;;;;;20.42;60.54;100384.44;5035314;27;97091;-54
2023/08/07 01:08:14;;;;;;;2.50;2.30;;;;;;;20.41;60.59;100380.16;5033889;27;99600;-54
2023/08/07 01:11:00;;;;;;;2.23;2.00;;;;;;;20.40;60.84;100385.00;5034399;27;97128;-54
2023/08/07 01:13:34;;;;;;;2.70;2.33;;;;;;;20.36;60.80;100379.06;5035049;27;96891;-54
2023/08/07 01:16:08;;;;;;;2.60;2.40;;;;;;;20.36;60.60;100386.69;5034604;27;96842;-54
2023/08/07 01:18:35;;;;;;;2.87;2.20;;;;;;;20.35;60.74;100380.38;5034241;27;97380;-54
2023/08/07 01:21:00;;;;;;;2.20;2.00;;;;;;;20.35;60.78;100383.19;5035302;27;97108;-53
2023/08/07 01:23:25;;;;;;;2.00;1.90;;;;;;;20.35;60.85;100374.03;5032764;27;96896;-54
2023/08/07 01:25:52;;;;;;;2.40;2.00;;;;;;;20.34;60.90;100373.28;5036162;27;96885;-54
2023/08/07 01:28:30;;;;;;;2.37;2.17;;;;;;;20.33;60.99;100377.41;5032076;27;97991;-53
2023/08/07 01:31:02;;;;;;;3.17;2.57;;;;;;;20.33;60.86;100380.22;5035154;27;96799;-53
2023/08/07 01:33:47;;;;;;;2.43;2.23;;;;;;;20.34;61.43;100369.75;5035016;27;97374;-54
2023/08/07 01:36:14;;;;;;;3.73;1.90;;;;;;;20.34;60.88;100370.50;5035049;27;97203;-54
2023/08/07 01:38:41;;;;;;;2.70;2.20;;;;;;;20.38;60.83;100375.72;5031944;27;97397;-55
2023/08/07 01:41:06;;;;;;;2.30;2.20;;;;;;;20.38;61.03;100370.13;5032824;27;100219;-54
2023/08/07 01:43:32;;;;;;;2.47;2.27;;;;;;;20.39;60.93;100372.34;5032681;27;96739;-54
2023/08/07 01:45:58;;;;;;;4.27;2.33;;;;;;;20.37;61.01;100363.78;5036640;27;96996;-53
2023/08/07 01:48:23;;;;;;;3.03;1.80;;;;;;;20.38;61.04;100368.06;5037169;27;97385;-53
2023/08/07 01:50:49;;;;;;;4.10;2.27;;;;;;;20.40;61.26;100359.13;5034953;27;97296;-54
2023/08/07 01:53:14;;;;;;;2.70;2.50;;;;;;;20.39;61.13;100358.38;5034299;27;97430;-54
2023/08/07 01:55:39;;;;;;;4.57;2.33;;;;;;;20.38;61.28;100354.09;5035674;27;98234;-54
2023/08/07 01:58:05;;;;;;;4.03;2.60;;;;;;;20.37;61.06;100352.63;5033815;27;96908;-53
2023/08/07 02:00:31;;;;;;;2.57;2.30;;;;;;;20.34;61.20;100356.53;5034757;27;97471;-53
2023/08/07 02:02:56;;;;;;;3.97;2.40;;;;;;;20.35;61.17;100349.66;5036687;27;96654;-53
2023/08/07 02:05:22;;;;;;;2.27;2.07;;;;;;;20.34;61.17;100350.94;5037881;27;97615;-54
2023/08/07 02:07:47;;;;;;;3.60;2.30;;;;;;;20.34;61.43;100350.94;5036861;27;96859;-53
2023/08/07 02:10:12;;;;;;;2.00;1.90;;;;;;;20.35;61.42;100352.44;5034929;27;104043;-53
2023/08/07 02:12:38;;;;;;;2.67;2.47;;;;;;;20.32;61.36;100359.16;5033468;27;97152;-53
2023/08/07 02:15:03;;;;;;;3.83;2.80;;;;;;;20.31;61.37;100352.09;5034699;27;96813;-53
2023/08/07 02:17:32;;;;;;;2.13;2.00;;;;;;;20.30;61.32;100353.41;5033486;27;98810;-53
2023/08/07 02:19:58;;;;;;;2.70;2.50;;;;;;;20.29;61.47;100360.28;5034667;27;97685;-53
2023/08/07 02:22:23;;;;;;;1.90;1.80;;;;;;;20.29;61.36;100360.28;5031992;27;97526;-53
2023/08/07 02:24:49;;;;;;;2.37;2.27;;;;;;;20.24;61.66;100355.66;5035400;27;97314;-53
2023/08/07 02:27:14;;;;;;;2.30;2.10;;;;;;;20.24;61.60;100369.63;5032696;27;96837;-53
2023/08/07 02:29:39;;;;;;;2.63;2.23;;;;;;;20.22;61.53;100358.28;5033960;27;97264;-53
2023/08/07 02:32:05;;;;;;;3.07;2.80;;;;;;;20.22;61.55;100363.13;5034163;27;97205;-53
2023/08/07 02:34:31;;;;;;;2.40;2.30;;;;;;;20.24;61.56;100364.06;5032532;27;97187;-53
2023/08/07 02:36:56;;;;;;;2.37;2.23;;;;;;;20.21;61.50;100367.97;5034199;27;97547;-53
2023/08/07 02:39:22;;;;;;;3.60;2.70;;;;;;;20.22;61.70;100374.31;5035057;27;100173;-53
2023/08/07 02:41:47;;;;;;;2.80;2.60;;;;;;;20.23;61.52;100368.13;5031782;27;97061;-53
2023/08/07 02:44:13;;;;;;;4.57;2.80;;;;;;;20.21;61.53;100373.56;5032271;27;97180;-53
2023/08/07 02:46:38;;;;;;;2.67;2.47;;;;;;;20.21;61.63;100373.56;5032708;27;96949;-53
2023/08/07 02:49:05;;;;;;;3.27;2.40;;;;;;;20.14;61.52;100379.88;5033562;27;105401;-53
2023/08/07 02:51:30;;;;;;;2.83;2.47;;;;;;;20.12;61.68;100383.25;5034269;27;96624;-52
2023/08/07 02:53:56;;;;;;;8.63;2.83;;;;;;;20.10;61.89;100382.31;5031929;27;97154;-53
2023/08/07 02:56:21;;;;;;;3.57;2.30;;;;;;;20.09;61.85;100378.06;5032845;27;106123;-53
2023/08/07 02:58:47;;;;;;;2.77;2.57;;;;;;;20.08;61.96;100374.53;5033282;27;97078;-53
2023/08/07 03:01:13;;;;;;;6.63;2.90;;;;;;;20.07;61.91;100370.22;5034838;27;97129;-53
2023/08/07 03:03:38;;;;;;;3.83;3.00;;;;;;;20.03;61.88;100369.13;5030980;27;101954;-53
2023/08/07 03:06:03;;;;;;;2.70;2.50;;;;;;;20.00;62.07;100373.06;5034676;27;97804;-53
2023/08/07 03:08:29;;;;;;;2.50;2.23;;;;;;;20.01;61.96;100378.09;5033821;27;97020;-53
2023/08/07 03:10:56;;;;;;;3.23;2.40;;;;;;;20.01;62.04;100378.09;5036665;27;97060;-53
2023/08/07 03:13:22;;;;;;;3.30;3.10;;;;;;;20.04;61.78;100381.81;5026013;27;99920;-53
2023/08/07 03:15:51;;;;;;;3.47;3.13;;;;;;;20.02;61.92;100390.00;5035474;27;97250;-53
2023/08/07 03:18:17;;;;;;;3.50;3.20;;;;;;;20.04;62.11;100376.22;5034406;27;97461;-51
2023/08/07 03:20:43;;;;;;;2.57;2.47;;;;;;;20.05;62.01;100369.34;5032385;27;98994;-51
2023/08/07 03:23:09;;;;;;;3.07;2.77;;;;;;;20.02;62.04;100376.78;5034008;27;97134;-52
2023/08/07 03:25:34;;;;;;;4.13;2.87;;;;;;;19.99;62.08;100372.31;5031293;27;97491;-50
2023/08/07 03:28:00;;;;;;;3.47;3.17;;;;;;;19.96;62.13;100370.66;5033858;27;97486;-51
2023/08/07 03:30:25;;;;;;;3.30;2.90;;;;;;;19.96;62.21;100376.22;5031675;27;96815;-51
2023/08/07 03:32:50;;;;;;;3.40;3.10;;;;;;;19.95;62.11;100391.50;5032808;27;96947;-51
2023/08/07 03:35:16;;;;;;;2.57;2.43;;;;;;;19.95;62.15;100382.38;5033354;27;97299;-52
2023/08/07 03:37:41;;;;;;;4.03;3.20;;;;;;;19.95;62.17;100385.94;5033305;27;105120;-50
2023/08/07 03:40:07;;;;;;;3.33;3.03;;;;;;;19.92;62.19;100380.75;5032571;27;96768;-52
2023/08/07 03:42:32;;;;;;;3.60;2.80;;;;;;;19.88;62.49;100386.69;5030200;27;97001;-50
2023/08/07 03:44:58;;;;;;;3.23;2.80;;;;;;;19.85;62.30;100384.31;5033625;27;97851;-51
2023/08/07 03:47:23;;;;;;;3.03;2.73;;;;;;;19.85;62.42;100381.50;5032431;27;96804;-51
2023/08/07 03:49:49;;;;;;;2.90;2.70;;;;;;;19.85;62.38;100381.50;5031179;27;97400;-52
2023/08/07 03:52:14;;;;;;;3.13;2.93;;;;;;;19.84;62.25;100385.59;5032325;27;97364;-52
2023/08/07 03:54:40;;;;;;;3.20;3.00;;;;;;;19.84;62.41;100391.91;5032543;27;98649;-50
2023/08/07 03:57:05;;;;;;;3.23;2.93;;;;;;;19.82;62.45;100385.41;5036851;27;101374;-52
2023/08/07 03:59:30;;;;;;;2.87;2.63;;;;;;;19.78;62.32;100383.00;5033867;27;97375;-51
2023/08/07 04:01:56;;;;;;;3.70;3.40;;;;;;;19.76;62.53;100385.63;5035298;27;96631;-51
2023/08/07 04:04:21;;;;;;;4.00;3.10;;;;;;;19.74;62.51;100388.25;5037862;27;97520;-51
2023/08/07 04:06:46;;;;;;;3.40;3.20;;;;;;;19.70;62.78;100384.34;5034376;27;97055;-51
2023/08/07 04:09:12;;;;;;;4.10;3.40;;;;;;;19.69;62.54;100388.44;5037609;27;97619;-52
2023/08/07 04:11:37;;;;;;;5.40;3.77;;;;;;;19.66;62.72;100395.16;5035663;27;96809;-52
2023/08/07 04:14:03;;;;;;;2.83;2.63;;;;;;;19.66;62.58;100393.09;5034965;27;107338;-51
2023/08/07 04:16:31;;;;;;;3.10;2.90;;;;;;;19.66;62.65;100397.94;5036893;27;97616;-51
2023/08/07 04:18:56;;;;;;;4.13;3.77;;;;;;;19.64;62.87;100390.13;5034162;27;97162;-51
2023/08/07 04:21:21;;;;;;;5.70;4.17;;;;;;;19.61;62.79;100396.09;5035288;27;97155;-51
2023/08/07 04:23:46;;;;;;;3.40;3.10;;;;;;;19.60;62.75;100402.97;5035140;27;97272;-52
2023/08/07 04:26:12;;;;;;;4.13;3.73;;;;;;;19.58;62.87;100405.56;5037630;27;107302;-52
2023/08/07 04:28:37;;;;;;;3.60;3.10;;;;;;;19.55;63.02;100407.44;5034159;27;97157;-52
2023/08/07 04:31:02;;;;;;;7.37;3.60;;;;;;;19.51;63.02;100403.53;5039037;27;96786;-52
2023/08/07 04:33:28;;;;;;;4.13;3.10;;;;;;;19.47;63.26;100406.72;5034174;27;105180;-51
2023/08/07 04:35:53;;;;;;;4.63;3.60;;;;;;;19.47;63.18;100408.75;5034647;27;96750;-52
2023/08/07 04:38:19;;;;;;;4.87;3.70;;;;;;;19.44;63.20;100402.97;5032283;27;96993;-51
2023/08/07 04:40:49;;;;;;;3.73;3.30;;;;;;;19.42;63.42;100418.78;5037217;27;96945;-52
2023/08/07 04:43:16;;;;;;;3.97;3.60;;;;;;;19.38;63.18;100410.81;5034304;27;96927;-52
2023/08/07 04:45:42;;;;;;;3.43;3.00;;;;;;;19.34;63.60;100418.81;5035368;27;97304;-52
2023/08/07 04:48:08;;;;;;;3.60;3.30;;;;;;;19.35;63.43;100409.13;5035932;27;97134;-52
2023/08/07 04:50:34;;;;;;;4.00;3.10;;;;;;;19.36;63.44;100416.22;5037444;27;97209;-52
2023/08/07 04:52:59;;;;;;;5.47;3.40;;;;;;;19.35;63.44;100411.91;5036080;27;97696;-52
2023/08/07 04:55:25;;;;;;;3.30;2.90;;;;;;;19.33;63.77;100408.91;5030898;27;102088;-52
2023/08/07 04:57:54;;;;;;;2.87;2.67;;;;;;;19.32;63.42;100415.06;5035763;27;96961;-51
2023/08/07 05:00:19;;;;;;;4.50;2.60;;;;;;;19.30;63.66;100415.63;5034134;27;96940;-52
2023/08/07 05:02:44;;;;;;;5.13;3.20;;;;;;;19.32;63.71;100421.41;5032940;27;97246;-52
2023/08/07 05:05:10;;;;;;;3.60;3.20;;;;;;;19.34;63.73;100423.63;5038449;27;97381;-51
2023/08/07 05:07:35;;;;;;;3.50;3.20;;;;;;;19.27;63.57;100425.09;5031556;27;97039;-53
2023/08/07 05:10:03;;;;;;;7.00;3.40;;;;;;;19.27;63.63;100421.56;5036119;27;96910;-52
2023/08/07 05:12:29;;;;;;;3.17;2.97;;;;;;;19.21;64.05;100432.94;5033450;27;97966;-52
2023/08/07 05:14:54;;;;;;;3.43;3.13;;;;;;;19.21;63.88;100432.16;5034056;27;98214;-51
2023/08/07 05:17:19;;;;;;;6.10;3.07;;;;;;;19.18;64.07;100438.84;5033573;27;97012;-52
2023/08/07 05:19:45;;;;;;;2.90;2.70;;;;;;;19.15;63.98;100445.56;5033366;27;98044;-52
2023/08/07 05:22:10;;;;;;;3.57;3.00;;;;;;;19.13;63.85;100442.59;5035349;27;103645;-53
2023/08/07 05:24:38;;;;;;;4.57;2.87;;;;;;;19.11;64.15;100434.75;5034569;27;97095;-53
2023/08/07 05:27:07;;;;;;;3.67;2.27;;;;;;;19.11;63.91;100437.56;5037077;27;97844;-53
2023/08/07 05:29:33;;;;;;;2.63;2.43;;;;;;;19.08;64.12;100435.91;5035682;27;97317;-53
2023/08/07 05:31:58;;;;;;;2.53;2.43;;;;;;;19.09;63.96;100436.66;5034430;27;97128;-53
2023/08/07 05:34:24;;;;;;;2.27;2.07;;;;;;;19.10;64.13;100450.03;5035121;27;96720;-53
2023/08/07 05:36:49;;;;;;;3.20;2.90;;;;;;;19.11;63.89;100445.91;5034358;27;97868;-53
2023/08/07 05:39:14;;;;;;;2.03;1.90;;;;;;;19.10;63.87;100450.03;5034121;27;97174;-53
2023/08/07 05:41:40;;;;;;;2.40;2.20;;;;;;;19.09;64.03;100442.94;5033383;27;97105;-53
2023/08/07 05:44:05;;;;;;;2.20;2.00;;;;;;;19.11;64.20;100445.19;5035524;27;97226;-53
2023/08/07 05:46:31;;;;;;;2.07;1.97;;;;;;;19.12;64.08;100457.81;5034688;27;96680;-53
2023/08/07 05:48:56;;;;;;;2.30;2.10;;;;;;;19.11;64.04;100451.50;5033939;27;97067;-52
2023/08/07 05:51:21;;;;;;;2.47;2.27;;;;;;;19.11;64.25;100451.50;5034392;27;97034;-53
2023/08/07 05:53:47;;;;;;;1.97;1.87;;;;;;;19.13;64.10;100451.69;5031602;27;97191;-54
2023/08/07 05:56:12;;;;;;;2.67;2.23;;;;;;;19.16;64.27;100449.81;5035671;27;97055;-53
2023/08/07 05:58:37;;;;;;;2.20;2.00;;;;;;;19.17;64.12;100451.31;5033111;27;96828;-52
2023/08/07 06:01:03;;;;;;;2.40;2.20;;;;;;;19.15;64.28;100451.91;5032343;27;97275;-52
2023/08/07 06:03:28;;;;;;;3.20;2.70;;;;;;;19.12;64.29;100450.22;5030886;27;97577;-53
2023/08/07 06:05:54;;;;;;;3.47;2.30;;;;;;;19.11;64.31;100451.50;5034442;27;97388;-52
2023/08/07 06:08:19;;;;;;;2.30;2.20;;;;;;;19.12;64.52;100458.56;5036152;27;96882;-53
2023/08/07 06:10:44;;;;;;;2.40;2.20;;;;;;;19.14;64.35;100455.22;5035241;27;104827;-53
2023/08/07 06:13:10;;;;;;;2.20;2.00;;;;;;;19.13;64.60;100456.53;5031489;27;101769;-53
2023/08/07 06:15:35;;;;;;;2.23;2.00;;;;;;;19.14;64.26;100453.19;5034001;27;97235;-53
2023/08/07 06:18:00;;;;;;;2.83;2.20;;;;;;;19.13;64.40;100451.69;5034549;27;97232;-52
2023/08/07 06:20:26;;;;;;;3.70;3.10;;;;;;;19.14;64.54;100453.19;5036490;27;96915;-52
2023/08/07 06:22:51;;;;;;;2.03;1.93;;;;;;;19.16;64.40;100463.78;5031657;27;96779;-53
2023/08/07 06:25:17;;;;;;;1.93;1.83;;;;;;;19.20;64.52;100462.09;5035339;27;96940;-52
2023/08/07 06:27:43;;;;;;;4.47;2.40;;;;;;;19.24;64.46;100454.09;5034490;27;97069;-52
2023/08/07 06:30:09;;;;;;;2.93;2.20;;;;;;;19.24;64.37;100458.97;5036805;27;97075;-53
2023/08/07 06:32:34;;;;;;;2.20;2.00;;;;;;;19.24;64.37;100459.69;5032974;27;97141;-52
2023/08/07 06:34:59;;;;;;;2.87;2.07;;;;;;;19.23;64.55;100469.38;5034447;27;98280;-52
2023/08/07 06:37:25;;;;;;;2.60;2.40;;;;;;;19.24;64.56;100461.75;5033386;27;96705;-52
2023/08/07 06:39:50;;;;;;;2.10;1.90;;;;;;;19.22;64.56;100459.50;5031270;27;107153;-52
2023/08/07 06:42:16;;;;;;;2.23;1.93;;;;;;;19.26;64.65;100467.50;5036213;27;103097;-54
2023/08/07 06:44:41;;;;;;;1.80;1.70;;;;;;;19.28;64.70;100454.50;5034336;27;96966;-52
2023/08/07 06:47:07;;;;;;;1.60;1.50;;;;;;;19.32;64.55;100460.44;5035036;27;96870;-52
2023/08/07 06:49:33;;;;;;;1.97;1.77;;;;;;;19.33;64.47;100464.00;5030625;27;97259;-52
2023/08/07 06:51:58;;;;;;;7.23;1.43;;;;;;;19.32;64.55;100471.59;5033433;27;97364;-52
2023/08/07 06:54:24;;;;;;;1.90;1.80;;;;;;;19.30;64.57;100465.84;5033759;27;96748;-52
2023/08/07 06:56:49;;;;;;;7.13;1.87;;;;;;;19.31;64.56;100472.16;5035674;27;97817;-52
2023/08/07 06:59:14;;;;;;;1.70;1.60;;;;;;;19.33;64.45;100481.44;5030616;27;96952;-52
2023/08/07 07:01:40;;;;;;;3.57;1.53;;;;;;;19.34;64.50;100477.41;5031808;27;105772;-52
2023/08/07 07:04:05;;;;;;;1.83;1.40;;;;;;;19.34;64.54;100474.63;5032622;27;97119;-52
2023/08/07 07:06:30;;;;;;;3.70;1.73;;;;;;;19.38;64.43;100480.56;5039355;27;96886;-51
2023/08/07 07:08:56;;;;;;;1.73;1.63;;;;;;;19.38;64.80;100477.03;5031615;27;97370;-52
2023/08/07 07:11:24;;;;;;;1.93;1.43;;;;;;;19.43;64.69;100481.69;5032822;27;103353;-52
2023/08/07 07:13:50;;;;;;;1.57;1.47;;;;;;;19.41;64.69;100482.25;5030324;27;97275;-52
2023/08/07 07:16:21;;;;;;;2.17;1.60;;;;;;;19.44;64.58;100483.16;5032972;27;97116;-52
2023/08/07 07:18:47;;;;;;;7.43;1.90;;;;;;;19.44;64.68;100486.69;5028299;27;97538;-52
2023/08/07 07:21:12;;;;;;;1.50;1.40;;;;;;;19.43;64.63;100482.44;5032741;27;97186;-52
2023/08/07 07:23:38;;;;;;;1.60;1.47;;;;;;;19.43;64.52;100478.88;5031724;27;96774;-51
2023/08/07 07:26:03;;;;;;;2.40;1.30;;;;;;;19.43;64.61;100476.84;5033515;27;98682;-52
2023/08/07 07:28:28;;;;;;;1.50;1.40;;;;;;;19.47;64.82;100475.72;5033853;27;102538;-52
2023/08/07 07:30:54;;;;;;;1.60;1.50;;;;;;;19.53;64.69;100485.38;5030243;27;97489;-51
2023/08/07 07:33:19;;;;;;;2.20;1.50;;;;;;;19.61;64.85;100485.41;5032321;27;96974;-52
2023/08/07 07:35:44;;;;;;;1.70;1.60;;;;;;;19.67;64.69;100494.31;5033914;27;97033;-51
2023/08/07 07:38:10;;;;;;;1.47;1.37;;;;;;;19.66;64.50;100493.56;5032397;27;97802;-51
2023/08/07 07:40:36;;;;;;;3.03;2.00;;;;;;;19.65;64.71;100508.09;5033662;27;97067;-51
2023/08/07 07:43:01;;;;;;;1.57;1.47;;;;;;;19.65;64.46;100503.25;5033111;27;97149;-51
2023/08/07 07:45:26;;;;;;;2.30;1.47;;;;;;;19.67;64.56;100508.28;5034423;27;96918;-51
2023/08/07 07:47:52;;;;;;;2.03;1.83;;;;;;;19.68;64.88;100501.41;5032396;27;113146;-51
2023/08/07 07:50:17;;;;;;;2.00;1.67;;;;;;;19.72;64.87;100510.13;5029463;27;108980;-52
2023/08/07 07:52:43;;;;;;;1.70;1.60;;;;;;;19.77;64.83;100501.56;5031613;27;97249;-51
2023/08/07 07:55:09;;;;;;;1.60;1.50;;;;;;;19.81;64.79;100507.50;5035779;27;97276;-51
2023/08/07 07:57:35;;;;;;;1.67;1.57;;;;;;;19.87;64.61;100502.50;5031518;27;97043;-51
2023/08/07 08:00:01;;;;;;;3.97;1.80;;;;;;;19.91;64.65;100502.84;5031399;27;97153;-52
2023/08/07 08:02:26;;;;;;;7.60;2.20;;;;;;;19.97;64.42;100500.59;5030999;27;97227;-51
2023/08/07 08:04:52;;;;;;;2.17;2.00;;;;;;;20.01;64.60;100500.97;5030998;27;96900;-52
2023/08/07 08:07:18;;;;;;;2.50;1.73;;;;;;;20.11;64.63;100501.88;5034410;27;96993;-51
2023/08/07 08:09:44;;;;;;;2.10;2.00;;;;;;;20.19;64.66;100502.59;5032061;27;96939;-52
2023/08/07 08:12:10;;;;;;;3.13;2.13;;;;;;;20.29;64.46;100507.63;5034261;27;96982;-51
2023/08/07 08:14:35;;;;;;;4.13;2.30;;;;;;;20.27;64.37;100502.59;5030893;27;96771;-52
2023/08/07 08:17:00;;;;;;;3.13;1.70;;;;;;;20.23;64.46;100510.63;5035432;27;97377;-51
2023/08/07 08:19:25;;;;;;;4.13;1.70;;;;;;;20.21;64.51;100534.84;5030838;27;108292;-52
2023/08/07 08:21:51;;;;;;;2.20;1.90;;;;;;;20.13;64.60;100540.44;5033130;27;97063;-52
2023/08/07 08:24:16;;;;;;;1.83;1.70;;;;;;;20.04;64.42;100538.19;5031579;27;96664;-52
2023/08/07 08:26:41;;;;;;;3.17;1.50;;;;;;;19.93;64.45;100539.34;5034807;27;97395;-52
2023/08/07 08:29:07;;;;;;;1.83;1.73;;;;;;;19.84;64.70;100539.16;5032969;27;106343;-52
2023/08/07 08:31:34;;;;;;;1.77;1.30;;;;;;;19.79;64.64;100540.09;5031361;27;96931;-52
2023/08/07 08:33:59;;;;;;;3.03;1.60;;;;;;;19.74;64.67;100547.38;5035348;27;99240;-52
2023/08/07 08:36:25;;;;;;;4.40;1.70;;;;;;;19.69;64.48;100528.00;5030455;27;97733;-52
2023/08/07 08:38:51;;;;;;;1.93;1.23;;;;;;;19.68;64.58;100534.91;5029743;27;98201;-52
2023/08/07 08:41:17;;;;;;;1.93;1.80;;;;;;;19.67;64.81;100542.50;5031905;27;97240;-52
2023/08/07 08:43:45;;;;;;;5.30;1.47;;;;;;;19.70;64.79;100549.75;5035244;27;96649;-52
2023/08/07 08:46:11;;;;;;;2.70;1.57;;;;;;;19.77;65.00;100549.03;5036757;27;96780;-52
2023/08/07 08:48:38;;;;;;;2.73;1.67;;;;;;;19.82;64.94;100550.88;5035309;27;97020;-52
2023/08/07 08:51:04;;;;;;;3.27;1.70;;;;;;;19.90;65.02;100550.88;5038324;27;97608;-52
2023/08/07 08:53:31;;;;;;;1.70;1.60;;;;;;;19.96;64.78;100554.22;5037165;27;96883;-52
2023/08/07 08:55:57;;;;;;;3.10;1.63;;;;;;;19.97;64.84;100559.25;5036104;27;98202;-52
2023/08/07 08:58:23;;;;;;;2.20;1.70;;;;;;;20.03;64.86;100559.03;5033725;27;97339;-52
2023/08/07 09:00:49;;;;;;;3.77;2.27;;;;;;;20.15;64.82;100554.56;5037404;27;97185;-52
2023/08/07 09:03:15;;;;;;;1.93;1.73;;;;;;;20.26;64.68;100565.38;5032773;27;97301;-52
2023/08/07 09:05:41;;;;;;;6.30;1.80;;;;;;;20.34;64.52;100559.75;5034300;27;97167;-52
2023/08/07 09:08:08;;;;;;;6.80;2.20;;;;;;;20.38;64.57;100560.88;5031677;27;97361;-52
2023/08/07 09:10:34;;;;;;;5.87;2.13;;;;;;;20.45;64.51;100562.91;5032935;27;97426;-53
2023/08/07 09:13:08;;;;;;;3.27;1.60;;;;;;;20.46;64.53;100567.19;5033215;27;97071;-53
2023/08/07 09:15:36;;;;;;;4.40;1.83;;;;;;;20.43;64.41;100567.56;5032051;27;97128;-52
2023/08/07 09:18:07;;;;;;;4.43;2.07;;;;;;;20.37;64.20;100572.63;5035680;27;96848;-52
2023/08/07 09:20:34;;;;;;;5.77;2.10;;;;;;;20.29;64.20;100569.81;5036765;27;97591;-52
2023/08/07 09:22:59;;;;;;;3.73;1.57;;;;;;;20.19;64.40;100577.28;5033079;27;96973;-52
2023/08/07 09:25:29;;;;;;;2.90;1.47;;;;;;;20.12;64.68;100573.19;5032597;27;96888;-53
2023/08/07 09:27:56;;;;;;;4.77;2.00;;;;;;;20.22;64.87;100569.88;5035534;27;98108;-52
2023/08/07 09:30:26;;;;;;;5.00;2.40;;;;;;;20.34;64.94;100573.72;5036114;27;97271;-52
2023/08/07 09:32:52;;;;;;;2.93;1.80;;;;;;;20.48;64.80;100575.00;5035944;27;97213;-51
2023/08/07 09:35:21;;;;;;;7.23;2.10;;;;;;;20.63;64.65;100581.31;5035467;27;97791;-52
2023/08/07 09:37:46;;;;;;;5.03;1.87;;;;;;;20.73;64.47;100575.84;5036466;27;99559;-52
2023/08/07 09:40:15;;;;;;;7.70;2.03;;;;;;;20.81;64.43;100571.00;5035394;27;97170;-52
2023/08/07 09:42:40;;;;;;;3.07;1.70;;;;;;;20.88;64.20;100573.75;5035704;27;97281;-52
2023/08/07 09:45:23;;;;;;;4.40;2.00;;;;;;;21.01;64.12;100583.22;5033703;27;97602;-53
2023/08/07 09:48:02;;;;;;;3.40;1.30;;;;;;;21.06;64.50;100569.03;5035054;27;97198;-52
2023/08/07 09:50:28;;;;;;;3.50;1.67;;;;;;;21.10;63.98;100583.34;5034981;27;97014;-52
2023/08/07 09:52:57;;;;;;;3.33;1.50;;;;;;;21.04;63.50;100590.47;5034682;27;96997;-52
2023/08/07 09:55:24;;;;;;;3.50;1.90;;;;;;;20.95;63.48;100585.47;5033646;27;97745;-53
2023/08/07 09:57:50;;;;;;;2.17;1.30;;;;;;;20.92;63.55;100582.47;5035798;27;97261;-52
2023/08/07 10:00:16;;;;;;;3.97;2.20;;;;;;;20.86;63.41;100589.59;5032922;27;96793;-52
2023/08/07 10:02:42;;;;;;;4.77;1.67;;;;;;;20.84;63.64;100590.16;5033691;27;97293;-53
2023/08/07 10:05:11;;;;;;;5.90;1.90;;;;;;;20.77;63.25;100579.75;5030942;27;97401;-52
2023/08/07 10:07:40;;;;;;;2.33;1.57;;;;;;;20.72;63.18;100591.16;5031779;27;96775;-52
2023/08/07 10:10:07;;;;;;;4.07;1.73;;;;;;;20.72;63.34;100597.50;5032898;27;96761;-53
2023/08/07 10:12:33;;;;;;;4.10;1.33;;;;;;;20.83;62.99;100593.53;5035096;27;96701;-51
2023/08/07 10:14:59;;;;;;;3.87;1.57;;;;;;;20.93;63.16;100597.97;5032710;27;97393;-53
2023/08/07 10:17:25;;;;;;;3.43;1.60;;;;;;;21.03;62.97;100589.75;5033966;27;101994;-52
2023/08/07 10:19:51;;;;;;;2.50;1.60;;;;;;;21.16;62.94;100599.94;5034201;27;97432;-53
2023/08/07 10:22:19;;;;;;;4.07;1.63;;;;;;;21.26;62.31;100600.81;5032522;27;97563;-52
2023/08/07 10:24:48;;;;;;;4.60;1.30;;;;;;;21.29;61.91;100599.69;5032855;27;97689;-52
2023/08/07 10:27:18;;;;;;;3.23;1.67;;;;;;;21.13;61.76;100637.44;5033225;27;96966;-53
2023/08/07 10:29:47;;;;;;;2.33;1.40;;;;;;;20.92;62.24;100646.81;5033567;27;96937;-53
2023/08/07 10:32:15;;;;;;;6.90;1.80;;;;;;;20.66;62.36;100663.31;5031970;27;97283;-54
2023/08/07 10:34:46;;;;;;;4.23;1.70;;;;;;;20.39;62.53;100654.59;5031931;27;98578;-53
2023/08/07 10:37:33;;;;;;;3.43;1.40;;;;;;;20.16;62.96;100648.22;5035292;27;97319;-53
2023/08/07 10:40:04;;;;;;;5.30;1.50;;;;;;;20.10;63.15;100642.84;5032185;27;97260;-52
2023/08/07 10:42:55;;;;;;;4.37;1.70;;;;;;;20.08;62.85;100653.09;5031305;27;97087;-52
2023/08/07 10:45:22;;;;;;;2.97;1.77;;;;;;;20.01;63.13;100657.38;5031759;27;97502;-52
2023/08/07 10:48:08;;;;;;;3.00;1.67;;;;;;;20.06;63.06;100670.41;5036950;27;97170;-52
2023/08/07 10:50:46;;;;;;;2.70;1.50;;;;;;;20.00;62.91;100660.72;5033577;27;97120;-52
2023/08/07 10:53:20;;;;;;;4.40;1.50;;;;;;;19.90;62.80;100656.97;5034142;27;96889;-52
2023/08/07 10:55:46;;;;;;;1.67;1.50;;;;;;;19.85;62.97;100660.72;5031899;27;97156;-52
2023/08/07 10:58:35;;;;;;;3.10;2.00;;;;;;;19.84;63.34;100673.94;5033460;27;97172;-51
2023/08/07 11:01:20;;;;;;;5.80;2.00;;;;;;;19.86;63.58;100660.16;5033772;27;97364;-52
2023/08/07 11:03:52;;;;;;;5.47;1.77;;;;;;;19.96;63.54;100652.69;5033921;27;97062;-52
2023/08/07 11:06:21;;;;;;;3.40;1.60;;;;;;;20.07;63.25;100649.53;5031677;27;97168;-51
2023/08/07 11:08:48;;;;;;;6.20;1.87;;;;;;;20.22;63.15;100648.09;5030094;27;97538;-52
2023/08/07 11:11:13;;;;;;;7.70;1.63;;;;;;;20.36;63.04;100641.72;5035181;27;97428;-52
2023/08/07 11:13:38;;;;;;;5.20;1.93;;;;;;;20.53;62.90;100639.09;5033054;27;101552;-52
2023/08/07 11:16:04;;;;;;;2.43;1.80;;;;;;;20.66;63.07;100652.13;5031784;27;110520;-52
2023/08/07 11:18:30;;;;;;;5.63;1.90;;;;;;;20.70;63.03;100647.66;5032126;27;97115;-52
2023/08/07 11:20:56;;;;;;;5.70;1.73;;;;;;;20.64;62.83;100644.28;5032108;27;96804;-52